Weather at Skyriders Aero Sport Club Helipad

Public forecast

Using degrees Celsius for public forecast. Weather courtesy of forecast.io.

Closest aviation weather report (METAR) to Skyriders Aero Sport Club Helipad

Closest report is Paphos International Airport, 2.6 nm (4.8 km) SE.

2024/05/25 22:30 (retrieved 29 minutes ago)

LCPH 252230Z 02007KT 9999 FEW020 19/15 Q1009 NOSIG

Closest aviation forecast (TAF) to Skyriders Aero Sport Club Helipad

Closest forecast is Paphos International Airport, 2.6 nm (4.8 km) SE.

2024/05/25 18:30 (retrieved 4 hours ago)

TAF LCPH 251730Z 2518/2618 29015KT 9999 FEW030 BECMG 2518/2520 35008KT BECMG 2607/2610 21010KT BECMG 2612/2615 30012KT BECMG 2616/2618 01008KT